Time;durP1;ratioP1;P1;durP2;ratioP2;P2;SDS_P1;SDS_P2;PMS_P1;PMS_P2;Temp;Humidity;BMP_temperature;BMP_pressure;BME280_temperature;BME280_humidity;BME280_pressure;Samples;Min_cycle;Max_cycle;Signal;HPM_P1;HPM_P2
2022/12/05 00:02:19;;;;;;;0.60;0.60;;;;;;;;;;1796198;79;26238;-40
2022/12/05 00:04:46;;;;;;;0.53;0.50;;;;;;;;;;1797890;78;26368;-47
2022/12/05 00:07:14;;;;;;;0.50;0.50;;;;;;;;;;1832839;76;26208;-47
2022/12/05 00:09:41;;;;;;;0.50;0.50;;;;;;;;;;1797050;79;26242;-45
2022/12/05 00:12:08;;;;;;;0.57;0.57;;;;;;;;;;1799189;79;26226;-45
2022/12/05 00:14:35;;;;;;;0.50;0.50;;;;;;;;;;1832051;77;26196;-40
2022/12/05 00:17:03;;;;;;;0.60;0.60;;;;;;;;;;1799363;78;26213;-44
2022/12/05 00:19:30;;;;;;;0.85;0.70;;;;;;;;;;1793238;78;27007;-42
2022/12/05 00:21:57;;;;;;;0.60;0.60;;;;;;;;;;1796633;78;26183;-39
2022/12/05 00:24:25;;;;;;;0.60;0.60;;;;;;;;;;1796924;80;26260;-42
2022/12/05 00:26:52;;;;;;;0.60;0.60;;;;;;;;;;1796001;78;26787;-43
2022/12/05 00:29:19;;;;;;;0.70;0.70;;;;;;;;;;1796139;78;26291;-42
2022/12/05 00:31:47;;;;;;;0.60;0.60;;;;;;;;;;1796201;78;26227;-48
2022/12/05 00:34:14;;;;;;;0.50;0.50;;;;;;;;;;1797147;78;26784;-42
2022/12/05 00:36:41;;;;;;;0.50;0.50;;;;;;;;;;1795906;78;26191;-41
2022/12/05 00:39:10;;;;;;;0.70;0.70;;;;;;;;;;1796989;78;26253;-39
2022/12/05 00:41:37;;;;;;;0.50;0.50;;;;;;;;;;1794795;78;26265;-39
2022/12/05 00:44:05;;;;;;;1.37;0.62;;;;;;;;;;1795920;80;27011;-45
2022/12/05 00:46:33;;;;;;;0.85;0.60;;;;;;;;;;1777649;78;26230;-40
2022/12/05 00:49:01;;;;;;;0.50;0.50;;;;;;;;;;1796701;78;26750;-38
2022/12/05 00:51:29;;;;;;;1.22;0.70;;;;;;;;;;1796220;78;26350;-42
2022/12/05 00:53:58;;;;;;;3.77;0.62;;;;;;;;;;1795926;78;26182;-41
2022/12/05 00:56:26;;;;;;;0.98;0.57;;;;;;;;;;1797305;78;26277;-45
2022/12/05 00:58:54;;;;;;;0.68;0.60;;;;;;;;;;1797460;78;26629;-44
2022/12/05 01:01:23;;;;;;;0.50;0.50;;;;;;;;;;1790851;78;26170;-43
2022/12/05 01:03:52;;;;;;;0.82;0.60;;;;;;;;;;1796175;78;26313;-42
2022/12/05 01:06:19;;;;;;;2.15;0.70;;;;;;;;;;1796932;78;27145;-40
2022/12/05 01:08:47;;;;;;;0.82;0.60;;;;;;;;;;1797120;80;26190;-40
2022/12/05 01:11:15;;;;;;;0.57;0.57;;;;;;;;;;1797077;78;26176;-40
2022/12/05 01:13:43;;;;;;;0.60;0.60;;;;;;;;;;1797120;78;26178;-43
2022/12/05 01:16:15;;;;;;;0.45;0.45;;;;;;;;;;1818325;77;26308;-39
2022/12/05 01:18:42;;;;;;;0.40;0.40;;;;;;;;;;1796574;78;26347;-44
2022/12/05 01:21:09;;;;;;;0.68;0.62;;;;;;;;;;1838452;76;26755;-42
2022/12/05 01:23:36;;;;;;;0.60;0.60;;;;;;;;;;1822629;77;26213;-42
2022/12/05 01:26:07;;;;;;;0.50;0.50;;;;;;;;;;1767839;80;26259;-42
2022/12/05 01:28:35;;;;;;;0.57;0.57;;;;;;;;;;1796177;80;26267;-43
2022/12/05 01:31:06;;;;;;;0.47;0.47;;;;;;;;;;1807345;78;26299;-42
2022/12/05 01:33:34;;;;;;;1.87;0.70;;;;;;;;;;1741867;81;26686;-40
2022/12/05 01:36:02;;;;;;;0.42;0.40;;;;;;;;;;1796104;78;26257;-41
2022/12/05 01:38:30;;;;;;;0.68;0.60;;;;;;;;;;1789204;78;26202;-42
2022/12/05 01:41:02;;;;;;;0.50;0.50;;;;;;;;;;1822627;77;26295;-41
2022/12/05 01:43:29;;;;;;;2.10;0.42;;;;;;;;;;1822423;78;26367;-46
2022/12/05 01:45:56;;;;;;;0.40;0.40;;;;;;;;;;1822603;77;26707;-43
2022/12/05 01:48:25;;;;;;;0.40;0.40;;;;;;;;;;1782850;79;26743;-47
2022/12/05 01:50:53;;;;;;;0.50;0.50;;;;;;;;;;1819377;77;26309;-39
2022/12/05 01:53:21;;;;;;;0.50;0.50;;;;;;;;;;1809263;78;26707;-43
2022/12/05 01:55:49;;;;;;;0.47;0.40;;;;;;;;;;1810365;79;26206;-44
2022/12/05 01:58:17;;;;;;;0.40;0.40;;;;;;;;;;1810659;78;26640;-43
2022/12/05 02:00:45;;;;;;;0.40;0.40;;;;;;;;;;1814017;78;26733;-45
2022/12/05 02:03:13;;;;;;;0.50;0.50;;;;;;;;;;1809773;78;26203;-42
2022/12/05 02:05:41;;;;;;;0.40;0.40;;;;;;;;;;1808274;78;26214;-50
2022/12/05 02:08:09;;;;;;;0.53;0.40;;;;;;;;;;1810392;78;26203;-39
2022/12/05 02:10:44;;;;;;;0.50;0.33;;;;;;;;;;1793676;78;26199;-39
2022/12/05 02:13:12;;;;;;;0.50;0.50;;;;;;;;;;1818677;78;26661;-44
2022/12/05 02:15:41;;;;;;;0.40;0.40;;;;;;;;;;1809717;79;26300;-42
2022/12/05 02:18:13;;;;;;;0.42;0.40;;;;;;;;;;1790729;78;26300;-38
2022/12/05 02:21:00;;;;;;;0.40;0.25;;;;;;;;;;1810030;78;26317;-42
2022/12/05 02:23:31;;;;;;;0.37;0.37;;;;;;;;;;1810443;78;26223;-47
2022/12/05 02:26:17;;;;;;;0.50;0.50;;;;;;;;;;1803617;78;26680;-40
2022/12/05 02:28:51;;;;;;;0.40;0.40;;;;;;;;;;1825007;78;26313;-44
2022/12/05 02:31:29;;;;;;;0.50;0.50;;;;;;;;;;1791568;78;26195;-39
2022/12/05 02:34:06;;;;;;;0.50;0.50;;;;;;;;;;1805016;79;26211;-42
2022/12/05 02:36:41;;;;;;;0.57;0.50;;;;;;;;;;1802849;78;26214;-43
2022/12/05 02:39:18;;;;;;;1.50;0.40;;;;;;;;;;1809752;78;26785;-38
2022/12/05 02:41:50;;;;;;;0.25;0.25;;;;;;;;;;1815646;78;26274;-42
2022/12/05 02:44:22;;;;;;;0.75;0.60;;;;;;;;;;1811250;78;26278;-41
2022/12/05 02:46:51;;;;;;;0.30;0.30;;;;;;;;;;1804777;78;26611;-45
2022/12/05 02:49:23;;;;;;;0.25;0.25;;;;;;;;;;1814892;78;26714;-41
2022/12/05 02:51:51;;;;;;;0.40;0.40;;;;;;;;;;1800320;77;26321;-38
2022/12/05 02:54:23;;;;;;;0.33;0.33;;;;;;;;;;1816659;77;26647;-43
2022/12/05 02:56:51;;;;;;;0.53;0.40;;;;;;;;;;1816817;78;26678;-48
2022/12/05 02:59:19;;;;;;;0.40;0.40;;;;;;;;;;1821651;77;26178;-40
2022/12/05 03:01:48;;;;;;;0.30;0.30;;;;;;;;;;1816150;78;26723;-42
2022/12/05 03:04:16;;;;;;;0.50;0.50;;;;;;;;;;1793131;78;26285;-43
2022/12/05 03:06:51;;;;;;;0.53;0.50;;;;;;;;;;1757032;81;26322;-43
2022/12/05 03:09:19;;;;;;;0.40;0.40;;;;;;;;;;1825990;76;26278;-38
2022/12/05 03:11:54;;;;;;;0.37;0.37;;;;;;;;;;1828611;78;26196;-43
2022/12/05 03:14:29;;;;;;;0.30;0.30;;;;;;;;;;1811182;77;27054;-40
2022/12/05 03:16:58;;;;;;;0.40;0.40;;;;;;;;;;1830426;77;26716;-38
2022/12/05 03:19:26;;;;;;;0.25;0.25;;;;;;;;;;1838462;76;26223;-46
2022/12/05 03:22:01;;;;;;;0.37;0.37;;;;;;;;;;1831080;77;26260;-43
2022/12/05 03:24:30;;;;;;;0.47;0.40;;;;;;;;;;1831097;76;26248;-40
2022/12/05 03:27:04;;;;;;;0.30;0.30;;;;;;;;;;1799726;78;26227;-44
2022/12/05 03:29:45;;;;;;;0.30;0.30;;;;;;;;;;1754321;80;26312;-40
2022/12/05 03:32:20;;;;;;;0.30;0.30;;;;;;;;;;1839135;76;26228;-38
2022/12/05 03:34:57;;;;;;;0.40;0.40;;;;;;;;;;1842028;77;26332;-39
2022/12/05 03:37:29;;;;;;;0.45;0.40;;;;;;;;;;1837988;78;26231;-43
2022/12/05 03:40:07;;;;;;;0.33;0.33;;;;;;;;;;1842796;76;26306;-38
2022/12/05 03:42:35;;;;;;;1.22;0.40;;;;;;;;;;1795119;78;26293;-39
2022/12/05 03:45:04;;;;;;;0.30;0.30;;;;;;;;;;1813146;77;26732;-42
2022/12/05 03:47:50;;;;;;;0.40;0.40;;;;;;;;;;1823951;77;26213;-43
2022/12/05 03:50:21;;;;;;;0.30;0.30;;;;;;;;;;1834464;77;26635;-44
2022/12/05 03:52:53;;;;;;;0.30;0.30;;;;;;;;;;1843018;77;26263;-41
2022/12/05 03:55:22;;;;;;;0.45;0.40;;;;;;;;;;1821126;77;26311;-43
2022/12/05 03:57:51;;;;;;;0.40;0.40;;;;;;;;;;1822246;77;26681;-41
2022/12/05 04:00:19;;;;;;;0.30;0.30;;;;;;;;;;1781448;80;26678;-40
2022/12/05 04:02:48;;;;;;;0.70;0.30;;;;;;;;;;1821873;77;26804;-40
2022/12/05 04:05:20;;;;;;;0.40;0.40;;;;;;;;;;1782887;80;26270;-45
2022/12/05 04:07:49;;;;;;;0.30;0.30;;;;;;;;;;1822489;77;26234;-45
2022/12/05 04:10:17;;;;;;;0.40;0.40;;;;;;;;;;1841797;77;26258;-39
2022/12/05 04:12:46;;;;;;;0.40;0.40;;;;;;;;;;1841925;76;26302;-47
2022/12/05 04:15:21;;;;;;;0.28;0.28;;;;;;;;;;1841554;76;26217;-43
2022/12/05 04:17:53;;;;;;;0.37;0.37;;;;;;;;;;1842074;76;26288;-40
2022/12/05 04:23:16;;;;;;;0.30;0.30;;;;;;;;;;1832362;76;26251;-42
2022/12/05 04:26:01;;;;;;;0.50;0.50;;;;;;;;;;1840989;78;27040;-42
2022/12/05 04:28:35;;;;;;;0.35;0.30;;;;;;;;;;1842527;78;26220;-42
2022/12/05 04:31:13;;;;;;;0.40;0.40;;;;;;;;;;1833946;76;26228;-43
2022/12/05 04:33:42;;;;;;;0.40;0.40;;;;;;;;;;1841877;78;26641;-45
2022/12/05 04:36:17;;;;;;;0.30;0.30;;;;;;;;;;1822652;78;26273;-42
2022/12/05 04:38:49;;;;;;;0.90;0.40;;;;;;;;;;1790933;79;27089;-41
2022/12/05 04:41:18;;;;;;;0.47;0.47;;;;;;;;;;1821171;77;26655;-40
2022/12/05 04:43:46;;;;;;;0.20;0.20;;;;;;;;;;1843365;76;26649;-42
2022/12/05 04:46:15;;;;;;;0.40;0.40;;;;;;;;;;1820026;77;26251;-48
2022/12/05 04:48:44;;;;;;;0.40;0.40;;;;;;;;;;1844794;76;26271;-44
2022/12/05 04:51:13;;;;;;;0.35;0.35;;;;;;;;;;1842299;77;26285;-43
2022/12/05 04:53:42;;;;;;;0.40;0.40;;;;;;;;;;1842681;77;26258;-41
2022/12/05 04:56:11;;;;;;;0.90;0.50;;;;;;;;;;1853325;76;26231;-39
2022/12/05 04:58:38;;;;;;;0.40;0.40;;;;;;;;;;1800056;78;26775;-40
2022/12/05 05:01:12;;;;;;;0.50;0.50;;;;;;;;;;1768911;79;27138;-40
2022/12/05 05:03:41;;;;;;;0.88;0.40;;;;;;;;;;1828663;77;26278;-43
2022/12/05 05:06:10;;;;;;;0.55;0.50;;;;;;;;;;1830000;77;26240;-43
2022/12/05 05:08:39;;;;;;;2.15;0.60;;;;;;;;;;1826077;77;26306;-41
2022/12/05 05:11:08;;;;;;;0.40;0.40;;;;;;;;;;1832212;77;26298;-42
2022/12/05 05:13:35;;;;;;;0.50;0.50;;;;;;;;;;1833538;77;26355;-43
2022/12/05 05:16:02;;;;;;;0.47;0.47;;;;;;;;;;1794646;79;26340;-42
2022/12/05 05:18:29;;;;;;;0.35;0.35;;;;;;;;;;1789329;79;26291;-42
2022/12/05 05:20:57;;;;;;;0.40;0.40;;;;;;;;;;1829689;77;26688;-38
2022/12/05 05:23:24;;;;;;;0.40;0.40;;;;;;;;;;1800205;78;27127;-43
2022/12/05 05:25:55;;;;;;;0.40;0.40;;;;;;;;;;1801103;78;26318;-42
2022/12/05 05:28:22;;;;;;;0.47;0.47;;;;;;;;;;1794768;79;26250;-39
2022/12/05 05:30:49;;;;;;;0.50;0.50;;;;;;;;;;1832237;76;26293;-41
2022/12/05 05:33:17;;;;;;;1.25;0.50;;;;;;;;;;1825242;77;26196;-39
2022/12/05 05:35:44;;;;;;;0.72;0.45;;;;;;;;;;1799358;79;26226;-43
2022/12/05 05:38:11;;;;;;;1.35;0.50;;;;;;;;;;1799921;78;27117;-38
2022/12/05 05:40:39;;;;;;;1.95;0.50;;;;;;;;;;1829116;76;26783;-42
2022/12/05 05:43:06;;;;;;;0.42;0.42;;;;;;;;;;1841621;77;26217;-41
2022/12/05 05:45:33;;;;;;;0.30;0.30;;;;;;;;;;1842445;76;26329;-39
2022/12/05 05:48:00;;;;;;;1.65;0.50;;;;;;;;;;1833060;77;26240;-38
2022/12/05 05:50:28;;;;;;;0.50;0.50;;;;;;;;;;1796211;78;26922;-52
2022/12/05 05:52:55;;;;;;;0.65;0.65;;;;;;;;;;1796721;78;26231;-42
2022/12/05 05:55:22;;;;;;;0.65;0.42;;;;;;;;;;1838283;77;26222;-40
2022/12/05 05:57:50;;;;;;;0.50;0.50;;;;;;;;;;1818193;77;26297;-43
2022/12/05 06:00:17;;;;;;;0.50;0.50;;;;;;;;;;1832714;76;26313;-41
2022/12/05 06:02:44;;;;;;;0.65;0.60;;;;;;;;;;1830690;77;26772;-44
2022/12/05 06:05:12;;;;;;;0.55;0.55;;;;;;;;;;1829321;76;26747;-43
2022/12/05 06:07:39;;;;;;;0.70;0.70;;;;;;;;;;1823390;77;26752;-40
2022/12/05 06:10:07;;;;;;;0.60;0.60;;;;;;;;;;1792398;78;26239;-42
2022/12/05 06:12:34;;;;;;;0.60;0.60;;;;;;;;;;1832712;77;26751;-44
2022/12/05 06:15:02;;;;;;;0.50;0.50;;;;;;;;;;1835199;77;26645;-45
2022/12/05 06:17:29;;;;;;;0.60;0.60;;;;;;;;;;1832614;77;26208;-43
2022/12/05 06:19:57;;;;;;;0.65;0.65;;;;;;;;;;1829149;76;26233;-39
2022/12/05 06:22:24;;;;;;;1.55;0.60;;;;;;;;;;1828530;76;26211;-53
2022/12/05 06:24:51;;;;;;;1.55;0.60;;;;;;;;;;1828956;77;26594;-44
2022/12/05 06:27:19;;;;;;;1.62;0.82;;;;;;;;;;1834194;77;26794;-53
2022/12/05 06:29:46;;;;;;;3.65;0.90;;;;;;;;;;1828423;77;26686;-45
2022/12/05 06:32:13;;;;;;;0.70;0.70;;;;;;;;;;1832138;77;26623;-42
2022/12/05 06:34:40;;;;;;;3.35;1.00;;;;;;;;;;1831588;76;26298;-46
2022/12/05 06:37:08;;;;;;;4.15;1.42;;;;;;;;;;1827171;77;26245;-42
2022/12/05 06:39:35;;;;;;;4.50;1.70;;;;;;;;;;1833858;78;26673;-45
2022/12/05 06:42:02;;;;;;;5.42;1.42;;;;;;;;;;1825890;77;26645;-41
2022/12/05 06:44:29;;;;;;;6.53;1.92;;;;;;;;;;1833524;76;26317;-45
2022/12/05 06:46:57;;;;;;;9.13;1.92;;;;;;;;;;1819699;76;28244;-44
2022/12/05 06:49:25;;;;;;;4.40;1.70;;;;;;;;;;1797087;79;26219;-42
2022/12/05 06:51:53;;;;;;;7.42;2.00;;;;;;;;;;1830417;77;28214;-41
2022/12/05 06:54:20;;;;;;;2.70;1.65;;;;;;;;;;1844910;77;26346;-41
2022/12/05 06:56:47;;;;;;;4.53;1.47;;;;;;;;;;1858306;76;26214;-43
2022/12/05 06:59:15;;;;;;;5.25;1.80;;;;;;;;;;1856610;76;26279;-45
2022/12/05 07:01:42;;;;;;;5.05;1.55;;;;;;;;;;1854169;76;26795;-49
2022/12/05 07:04:14;;;;;;;4.33;1.60;;;;;;;;;;1856503;76;26295;-40
2022/12/05 07:06:42;;;;;;;9.00;1.70;;;;;;;;;;1856024;76;26222;-44
2022/12/05 07:09:10;;;;;;;4.00;1.47;;;;;;;;;;1800795;77;26241;-39
2022/12/05 07:11:37;;;;;;;3.87;1.40;;;;;;;;;;1789017;79;26714;-42
2022/12/05 07:14:05;;;;;;;3.20;1.45;;;;;;;;;;1820944;77;26234;-40
2022/12/05 07:16:32;;;;;;;1.52;1.12;;;;;;;;;;1761194;81;26188;-38
2022/12/05 07:18:59;;;;;;;1.60;1.22;;;;;;;;;;1798456;78;26253;-37
2022/12/05 07:21:27;;;;;;;3.02;1.30;;;;;;;;;;1795023;79;26289;-38
2022/12/05 07:23:54;;;;;;;4.92;1.37;;;;;;;;;;1793845;78;27073;-43
2022/12/05 07:26:22;;;;;;;1.85;1.45;;;;;;;;;;1797007;78;26324;-39
2022/12/05 07:28:50;;;;;;;2.72;1.02;;;;;;;;;;1795409;78;27046;-47
2022/12/05 07:31:19;;;;;;;1.67;1.07;;;;;;;;;;1794187;78;26374;-43
2022/12/05 07:33:46;;;;;;;1.07;1.00;;;;;;;;;;1792797;78;26234;-41
2022/12/05 07:36:15;;;;;;;1.25;1.15;;;;;;;;;;1794029;78;26288;-37
2022/12/05 07:38:42;;;;;;;1.12;0.90;;;;;;;;;;1823151;77;26303;-49
2022/12/05 07:41:11;;;;;;;1.47;1.10;;;;;;;;;;1822192;77;26762;-39
2022/12/05 07:43:38;;;;;;;2.08;1.00;;;;;;;;;;1821314;77;26268;-45
2022/12/05 07:46:06;;;;;;;0.80;0.80;;;;;;;;;;1821503;77;26235;-44
2022/12/05 07:48:33;;;;;;;0.78;0.78;;;;;;;;;;1821751;77;26217;-43
2022/12/05 07:51:04;;;;;;;1.75;0.90;;;;;;;;;;1822188;77;26295;-44
2022/12/05 07:53:32;;;;;;;2.75;0.90;;;;;;;;;;1822415;77;26241;-43
2022/12/05 07:56:00;;;;;;;2.25;0.90;;;;;;;;;;1825057;77;26281;-43
2022/12/05 07:58:30;;;;;;;0.88;0.80;;;;;;;;;;1791309;79;26303;-48
2022/12/05 08:00:59;;;;;;;1.07;0.98;;;;;;;;;;1787833;78;26319;-43
2022/12/05 08:03:26;;;;;;;1.85;0.88;;;;;;;;;;1839475;76;26275;-48
2022/12/05 08:05:53;;;;;;;2.40;1.00;;;;;;;;;;1830998;76;26212;-41
2022/12/05 08:08:21;;;;;;;1.12;0.93;;;;;;;;;;1832932;76;26628;-41
2022/12/05 08:10:48;;;;;;;1.50;0.72;;;;;;;;;;1833259;76;26256;-54
2022/12/05 08:13:15;;;;;;;1.00;1.00;;;;;;;;;;1833379;78;26212;-44
2022/12/05 08:15:42;;;;;;;1.37;0.80;;;;;;;;;;1832946;78;26309;-48
2022/12/05 08:18:10;;;;;;;0.72;0.72;;;;;;;;;;1832299;76;26208;-48
2022/12/05 08:20:37;;;;;;;0.80;0.80;;;;;;;;;;1832402;76;26263;-40
2022/12/05 08:23:04;;;;;;;1.20;0.80;;;;;;;;;;1832612;77;26767;-40
2022/12/05 08:25:33;;;;;;;4.03;0.80;;;;;;;;;;1831873;76;26274;-43
2022/12/05 08:28:00;;;;;;;0.68;0.68;;;;;;;;;;1829154;76;26814;-40
2022/12/05 08:30:28;;;;;;;0.60;0.60;;;;;;;;;;1830870;77;26719;-43
2022/12/05 08:32:55;;;;;;;1.65;0.60;;;;;;;;;;1829600;77;26311;-44
2022/12/05 08:35:22;;;;;;;0.80;0.80;;;;;;;;;;1830112;76;26249;-52
2022/12/05 08:37:50;;;;;;;2.37;1.00;;;;;;;;;;1831530;76;26342;-42
2022/12/05 08:40:18;;;;;;;0.95;0.80;;;;;;;;;;1833589;78;27174;-41
2022/12/05 08:42:45;;;;;;;0.75;0.75;;;;;;;;;;1832715;78;26793;-44
2022/12/05 08:45:12;;;;;;;0.80;0.75;;;;;;;;;;1832039;76;26249;-42
2022/12/05 08:47:39;;;;;;;0.82;0.78;;;;;;;;;;1833578;76;26216;-43
2022/12/05 08:50:07;;;;;;;2.92;0.80;;;;;;;;;;1833203;76;26293;-40
2022/12/05 08:52:34;;;;;;;0.60;0.60;;;;;;;;;;1832931;76;26335;-42
2022/12/05 08:55:02;;;;;;;0.85;0.75;;;;;;;;;;1828032;76;26287;-42
2022/12/05 08:57:30;;;;;;;0.90;0.70;;;;;;;;;;1820492;77;26208;-41
2022/12/05 08:59:57;;;;;;;1.10;0.60;;;;;;;;;;1823065;78;26223;-42
2022/12/05 09:02:24;;;;;;;0.70;0.70;;;;;;;;;;1826212;77;26263;-40
2022/12/05 09:04:52;;;;;;;0.85;0.65;;;;;;;;;;1819292;78;26292;-47
2022/12/05 09:07:19;;;;;;;1.52;0.70;;;;;;;;;;1823373;77;26303;-39
2022/12/05 09:09:46;;;;;;;0.60;0.60;;;;;;;;;;1820160;78;26213;-48
2022/12/05 09:12:14;;;;;;;0.70;0.70;;;;;;;;;;1823710;77;26732;-49
2022/12/05 09:14:41;;;;;;;0.60;0.60;;;;;;;;;;1821859;77;26293;-43
2022/12/05 09:17:08;;;;;;;0.60;0.60;;;;;;;;;;1822679;77;26252;-41
2022/12/05 09:19:35;;;;;;;0.50;0.50;;;;;;;;;;1826042;77;26220;-44
2022/12/05 09:22:04;;;;;;;0.62;0.62;;;;;;;;;;1822240;78;26220;-45
2022/12/05 09:24:31;;;;;;;0.80;0.80;;;;;;;;;;1819566;77;26276;-48
2022/12/05 09:26:59;;;;;;;0.90;0.90;;;;;;;;;;1820235;78;26217;-45
2022/12/05 09:29:28;;;;;;;0.70;0.70;;;;;;;;;;1823027;77;26665;-47
2022/12/05 09:31:55;;;;;;;0.70;0.70;;;;;;;;;;1821865;77;26406;-43
2022/12/05 09:34:24;;;;;;;1.00;0.68;;;;;;;;;;1821466;77;26224;-42
2022/12/05 09:36:51;;;;;;;0.80;0.80;;;;;;;;;;1820994;77;25763;-45
2022/12/05 09:39:19;;;;;;;0.80;0.80;;;;;;;;;;1823582;77;26258;-47
2022/12/05 09:42:04;;;;;;;0.72;0.72;;;;;;;;;;1824558;77;26734;-50
2022/12/05 09:44:41;;;;;;;0.60;0.60;;;;;;;;;;1821759;77;26744;-42
2022/12/05 09:47:10;;;;;;;1.10;1.00;;;;;;;;;;1824344;77;26240;-42
2022/12/05 09:49:39;;;;;;;0.90;0.90;;;;;;;;;;1825305;77;26200;-40
2022/12/05 09:52:06;;;;;;;2.05;0.80;;;;;;;;;;1824013;78;26272;-41
2022/12/05 09:54:34;;;;;;;0.65;0.65;;;;;;;;;;1822551;77;26263;-43
2022/12/05 09:57:02;;;;;;;0.70;0.70;;;;;;;;;;1821311;77;26326;-45
2022/12/05 09:59:30;;;;;;;3.30;0.98;;;;;;;;;;1820652;77;26290;-44
2022/12/05 10:01:59;;;;;;;0.75;0.75;;;;;;;;;;1826548;77;26325;-40
2022/12/05 10:04:38;;;;;;;0.78;0.78;;;;;;;;;;1821170;77;26330;-45
2022/12/05 10:07:21;;;;;;;0.80;0.80;;;;;;;;;;1819855;78;26370;-42
2022/12/05 10:10:09;;;;;;;0.53;0.53;;;;;;;;;;1821256;78;26206;-47
2022/12/05 10:12:40;;;;;;;0.80;0.80;;;;;;;;;;1824080;78;26272;-42
2022/12/05 10:15:12;;;;;;;0.70;0.70;;;;;;;;;;1824818;77;26264;-41
2022/12/05 10:17:40;;;;;;;0.70;0.70;;;;;;;;;;1822827;77;26274;-43
2022/12/05 10:20:12;;;;;;;1.27;0.80;;;;;;;;;;1819209;77;26283;-39
2022/12/05 10:22:47;;;;;;;2.35;0.85;;;;;;;;;;1821891;78;26274;-41
2022/12/05 10:25:16;;;;;;;0.75;0.75;;;;;;;;;;1825956;77;26688;-39
2022/12/05 10:27:45;;;;;;;0.70;0.70;;;;;;;;;;1825251;77;26788;-42
2022/12/05 10:30:14;;;;;;;0.72;0.72;;;;;;;;;;1823828;78;26661;-43
2022/12/05 10:32:43;;;;;;;0.80;0.80;;;;;;;;;;1822897;77;26217;-42
2022/12/05 10:35:17;;;;;;;0.80;0.80;;;;;;;;;;1820808;77;26283;-40
2022/12/05 10:37:46;;;;;;;0.70;0.70;;;;;;;;;;1824930;77;26227;-48
2022/12/05 10:40:13;;;;;;;0.70;0.70;;;;;;;;;;1820504;77;26228;-44
2022/12/05 10:42:41;;;;;;;0.80;0.80;;;;;;;;;;1824147;78;26775;-39
2022/12/05 10:45:10;;;;;;;0.70;0.70;;;;;;;;;;1824236;77;26311;-40
2022/12/05 10:47:37;;;;;;;0.80;0.80;;;;;;;;;;1821634;77;26205;-38
2022/12/05 10:50:09;;;;;;;1.05;0.70;;;;;;;;;;1819294;77;26230;-42
2022/12/05 10:52:36;;;;;;;0.88;0.88;;;;;;;;;;1810747;78;29919;-39
2022/12/05 10:55:05;;;;;;;0.93;0.93;;;;;;;;;;1797337;78;26221;-35
2022/12/05 10:57:32;;;;;;;1.45;0.80;;;;;;;;;;1851592;76;26211;-36
2022/12/05 11:00:01;;;;;;;0.80;0.80;;;;;;;;;;1852156;76;26284;-38
2022/12/05 11:02:30;;;;;;;0.80;0.80;;;;;;;;;;1850553;76;26270;-37
2022/12/05 11:04:58;;;;;;;0.80;0.80;;;;;;;;;;1852925;76;26223;-46
2022/12/05 11:07:32;;;;;;;0.93;0.80;;;;;;;;;;1852247;76;26656;-46
2022/12/05 11:10:00;;;;;;;0.88;0.88;;;;;;;;;;1852968;76;26238;-41
2022/12/05 11:12:38;;;;;;;3.02;0.70;;;;;;;;;;1852870;76;26236;-43
2022/12/05 11:15:21;;;;;;;0.70;0.70;;;;;;;;;;1852090;77;26212;-42
2022/12/05 11:17:49;;;;;;;0.80;0.80;;;;;;;;;;1852729;76;26290;-41
2022/12/05 11:20:20;;;;;;;0.70;0.70;;;;;;;;;;1851906;76;26739;-40
2022/12/05 11:22:49;;;;;;;0.70;0.70;;;;;;;;;;1851682;77;26207;-41
2022/12/05 11:25:24;;;;;;;0.78;0.78;;;;;;;;;;1851499;76;26302;-39
2022/12/05 11:27:51;;;;;;;0.78;0.78;;;;;;;;;;1841253;76;28196;-39
2022/12/05 11:30:19;;;;;;;0.70;0.70;;;;;;;;;;1853821;76;26183;-39
2022/12/05 11:32:48;;;;;;;0.60;0.60;;;;;;;;;;1850792;77;26667;-42
2022/12/05 11:35:17;;;;;;;0.70;0.70;;;;;;;;;;1853242;76;26692;-47
2022/12/05 11:38:03;;;;;;;0.65;0.65;;;;;;;;;;1852467;76;26668;-49
2022/12/05 11:40:32;;;;;;;0.70;0.70;;;;;;;;;;1852852;77;26692;-41
2022/12/05 11:43:03;;;;;;;0.70;0.70;;;;;;;;;;1852874;75;26626;-42
2022/12/05 11:45:48;;;;;;;0.60;0.60;;;;;;;;;;1851795;76;26244;-44
2022/12/05 11:48:20;;;;;;;0.68;0.68;;;;;;;;;;1852691;77;26227;-43
2022/12/05 11:50:51;;;;;;;0.80;0.80;;;;;;;;;;1851395;76;26176;-39
2022/12/05 11:53:20;;;;;;;0.70;0.70;;;;;;;;;;1852150;77;27053;-39
2022/12/05 11:56:06;;;;;;;0.65;0.65;;;;;;;;;;1851444;76;26180;-39
2022/12/05 11:58:49;;;;;;;0.80;0.80;;;;;;;;;;1852487;77;26244;-47
2022/12/05 12:01:22;;;;;;;1.22;0.57;;;;;;;;;;1852807;76;26185;-38
2022/12/05 12:04:07;;;;;;;0.93;0.78;;;;;;;;;;1852424;76;27347;-39
2022/12/05 12:06:39;;;;;;;0.70;0.70;;;;;;;;;;1852888;77;26700;-38
2022/12/05 12:09:26;;;;;;;0.70;0.70;;;;;;;;;;1852224;76;26572;-40
2022/12/05 12:12:01;;;;;;;0.60;0.60;;;;;;;;;;1852735;76;26344;-38
2022/12/05 12:14:29;;;;;;;0.70;0.70;;;;;;;;;;1852232;76;26801;-41
2022/12/05 12:17:17;;;;;;;0.62;0.62;;;;;;;;;;1845228;76;28158;-39
2022/12/05 12:20:03;;;;;;;0.60;0.60;;;;;;;;;;1852806;76;26227;-47
2022/12/05 12:22:37;;;;;;;0.70;0.70;;;;;;;;;;1854047;76;26293;-42
2022/12/05 12:25:15;;;;;;;0.68;0.68;;;;;;;;;;1852893;77;26211;-49
2022/12/05 12:27:47;;;;;;;0.70;0.70;;;;;;;;;;1853299;77;26231;-43
2022/12/05 12:30:16;;;;;;;0.80;0.60;;;;;;;;;;1851940;77;26221;-43
2022/12/05 12:32:45;;;;;;;0.78;0.78;;;;;;;;;;1852503;76;26239;-42
2022/12/05 12:35:23;;;;;;;0.70;0.70;;;;;;;;;;1852846;76;26275;-39
2022/12/05 12:38:09;;;;;;;0.53;0.53;;;;;;;;;;1852454;76;26164;-39
2022/12/05 12:40:41;;;;;;;0.80;0.80;;;;;;;;;;1852078;76;26274;-43
2022/12/05 12:43:13;;;;;;;0.80;0.80;;;;;;;;;;1852220;77;26297;-40
2022/12/05 12:45:46;;;;;;;0.70;0.70;;;;;;;;;;1851397;76;26259;-40
2022/12/05 12:48:21;;;;;;;0.60;0.60;;;;;;;;;;1852912;76;26256;-45
2022/12/05 12:50:50;;;;;;;10.78;0.93;;;;;;;;;;1851716;76;26212;-43
2022/12/05 12:53:27;;;;;;;2.37;1.00;;;;;;;;;;1852562;75;26258;-43
2022/12/05 12:55:56;;;;;;;0.82;0.82;;;;;;;;;;1852759;77;26356;-41
2022/12/05 12:58:25;;;;;;;0.80;0.75;;;;;;;;;;1860671;75;26340;-38
2022/12/05 13:01:12;;;;;;;1.10;0.85;;;;;;;;;;1861964;75;26263;-45
2022/12/05 13:03:41;;;;;;;0.80;0.80;;;;;;;;;;1859895;77;27245;-43
2022/12/05 13:06:15;;;;;;;0.98;0.85;;;;;;;;;;1861677;77;26289;-38
2022/12/05 13:08:50;;;;;;;0.90;0.72;;;;;;;;;;1861869;75;26278;-43
2022/12/05 13:11:18;;;;;;;0.80;0.80;;;;;;;;;;1861638;75;26269;-38
2022/12/05 13:13:47;;;;;;;1.22;0.80;;;;;;;;;;1860317;75;26672;-44
2022/12/05 13:16:16;;;;;;;1.57;0.82;;;;;;;;;;1861605;77;26227;-39
2022/12/05 13:18:43;;;;;;;0.65;0.65;;;;;;;;;;1861267;76;26305;-42
2022/12/05 13:21:10;;;;;;;0.80;0.80;;;;;;;;;;1861408;75;26219;-44
2022/12/05 13:23:42;;;;;;;0.80;0.80;;;;;;;;;;1863364;75;26629;-38
2022/12/05 13:26:10;;;;;;;1.10;0.80;;;;;;;;;;1861534;75;26333;-43
2022/12/05 13:28:42;;;;;;;0.85;0.85;;;;;;;;;;1862682;75;26200;-44
2022/12/05 13:31:10;;;;;;;0.60;0.60;;;;;;;;;;1826725;77;26276;-52
2022/12/05 13:33:45;;;;;;;0.70;0.70;;;;;;;;;;1839275;76;26263;-42
2022/12/05 13:44:37;;;;;;;0.98;0.90;;;;;;;;;;1839345;76;26253;-42
2022/12/05 13:47:06;;;;;;;0.75;0.70;;;;;;;;;;1838768;76;26637;-43
2022/12/05 13:49:38;;;;;;;0.75;0.70;;;;;;;;;;1838906;77;26267;-43
2022/12/05 13:52:09;;;;;;;0.78;0.78;;;;;;;;;;1838858;76;26091;-48
2022/12/05 13:54:38;;;;;;;0.70;0.70;;;;;;;;;;1835092;77;26279;-43
2022/12/05 13:57:05;;;;;;;0.70;0.70;;;;;;;;;;1833112;76;26268;-49
2022/12/05 13:59:50;;;;;;;0.72;0.72;;;;;;;;;;1824141;78;26197;-42
2022/12/05 14:02:36;;;;;;;0.90;0.80;;;;;;;;;;1824191;78;26211;-46
2022/12/05 14:05:04;;;;;;;0.62;0.62;;;;;;;;;;1822816;77;26729;-43
2022/12/05 14:07:40;;;;;;;0.65;0.65;;;;;;;;;;1824580;77;26968;-44
2022/12/05 14:10:08;;;;;;;0.70;0.70;;;;;;;;;;1825342;78;26217;-40
2022/12/05 14:12:51;;;;;;;0.60;0.60;;;;;;;;;;1819440;78;26290;-43
2022/12/05 14:15:35;;;;;;;0.50;0.50;;;;;;;;;;1821535;78;26348;-54
2022/12/05 14:18:16;;;;;;;0.70;0.70;;;;;;;;;;1824103;77;26246;-46
2022/12/05 14:21:01;;;;;;;0.60;0.60;;;;;;;;;;1826260;78;26271;-45
2022/12/05 14:23:43;;;;;;;1.05;0.60;;;;;;;;;;1822509;78;26281;-43
2022/12/05 14:26:14;;;;;;;0.80;0.80;;;;;;;;;;1822872;78;26267;-41
2022/12/05 14:28:55;;;;;;;0.70;0.70;;;;;;;;;;1820714;77;26714;-49
2022/12/05 14:31:27;;;;;;;0.70;0.70;;;;;;;;;;1823716;78;26271;-44
2022/12/05 14:34:04;;;;;;;0.72;0.72;;;;;;;;;;1821728;78;26224;-42
2022/12/05 14:36:32;;;;;;;0.60;0.60;;;;;;;;;;1821881;77;26268;-41
2022/12/05 14:39:00;;;;;;;0.60;0.60;;;;;;;;;;1821069;78;26223;-38
2022/12/05 14:41:28;;;;;;;0.70;0.70;;;;;;;;;;1821055;77;26254;-42
2022/12/05 14:43:56;;;;;;;0.60;0.60;;;;;;;;;;1826112;77;26318;-40
2022/12/05 14:46:25;;;;;;;0.70;0.70;;;;;;;;;;1823169;77;26204;-41
2022/12/05 14:48:54;;;;;;;0.40;0.40;;;;;;;;;;1823399;77;26228;-41
2022/12/05 14:51:31;;;;;;;0.65;0.65;;;;;;;;;;1822828;77;26200;-41
2022/12/05 14:54:15;;;;;;;2.92;0.60;;;;;;;;;;1822144;77;26202;-41
2022/12/05 14:56:44;;;;;;;0.60;0.60;;;;;;;;;;1793532;79;27298;-50
2022/12/05 14:59:16;;;;;;;0.80;0.80;;;;;;;;;;1795577;78;26383;-41
2022/12/05 15:01:45;;;;;;;0.70;0.70;;;;;;;;;;1800866;78;26223;-41
2022/12/05 15:04:13;;;;;;;0.98;0.98;;;;;;;;;;1807197;78;26217;-38
2022/12/05 15:06:51;;;;;;;0.80;0.80;;;;;;;;;;1776699;79;26176;-44
2022/12/05 15:09:22;;;;;;;0.70;0.70;;;;;;;;;;1773459;79;26935;-40
2022/12/05 15:11:50;;;;;;;0.82;0.82;;;;;;;;;;1775885;80;26868;-40
2022/12/05 15:14:20;;;;;;;0.80;0.80;;;;;;;;;;1774045;79;26241;-45